createdAt,value
2019-05-15T00:00:39.023Z,50.84
2019-05-15T00:01:40.997Z,51.26
2019-05-15T00:02:39.058Z,51.26
2019-05-15T00:03:39.368Z,50.95
2019-05-15T00:04:38.987Z,51.05
2019-05-15T00:05:39.462Z,51.87
2019-05-15T00:06:39.203Z,52.00
2019-05-15T00:07:39.456Z,51.18
2019-05-15T00:08:38.937Z,52.00
2019-05-15T00:09:41.803Z,52.73
2019-05-15T00:10:39.470Z,52.31
2019-05-15T00:11:39.150Z,52.62
2019-05-15T00:12:39.697Z,52.52
2019-05-15T00:13:39.216Z,52.65
2019-05-15T00:14:38.972Z,52.55
2019-05-15T00:15:40.081Z,52.75
2019-05-15T00:16:38.866Z,53.68
2019-05-15T00:17:39.641Z,53.27
2019-05-15T00:18:39.257Z,52.34
2019-05-15T00:19:39.010Z,52.65
2019-05-15T00:20:39.576Z,52.65
2019-05-15T00:21:38.779Z,52.65
2019-05-15T00:22:39.203Z,52.65
2019-05-15T00:23:39.069Z,52.55
2019-05-15T00:24:38.749Z,52.31
2019-05-15T00:25:39.619Z,53.24
2019-05-15T00:26:38.726Z,53.06
2019-05-15T00:27:39.042Z,52.86
2019-05-15T00:28:39.063Z,52.34
2019-05-15T00:29:38.699Z,52.65
2019-05-15T00:30:39.089Z,52.75
2019-05-15T00:31:38.952Z,53.27
2019-05-15T00:32:39.473Z,52.86
2019-05-15T00:33:39.317Z,52.86
2019-05-15T00:34:38.641Z,53.27
2019-05-15T00:35:39.552Z,53.68
2019-05-15T00:36:38.615Z,52.65
2019-05-15T00:37:39.109Z,53.37
2019-05-15T00:38:39.155Z,53.45
2019-05-15T00:39:39.161Z,52.83
2019-05-15T00:40:39.356Z,52.62
2019-05-15T00:41:50.279Z,52.83
2019-05-15T00:42:39.540Z,53.14
2019-05-15T00:43:38.829Z,52.31
2019-05-15T00:44:38.803Z,52.95
2019-05-15T00:45:38.888Z,53.37
2019-05-15T00:46:38.560Z,53.99
2019-05-15T00:47:39.642Z,53.24
2019-05-15T00:48:39.779Z,53.03
2019-05-15T00:49:38.461Z,52.44
2019-05-15T00:50:39.300Z,53.47
2019-05-15T00:51:39.026Z,53.58
2019-05-15T00:52:39.065Z,53.27
2019-05-15T00:53:39.018Z,53.24
2019-05-15T00:54:38.900Z,52.93
2019-05-15T00:55:38.400Z,53.58
2019-05-15T00:56:39.151Z,53.37
2019-05-15T00:57:39.346Z,53.37
2019-05-15T00:58:40.211Z,53.58
2019-05-15T00:59:38.990Z,52.75
2019-05-15T01:00:38.340Z,52.75
2019-05-15T01:01:38.366Z,53.16
2019-05-15T01:02:38.989Z,52.95
2019-05-15T01:03:38.932Z,53.39
2019-05-15T01:04:38.899Z,53.81
2019-05-15T01:05:38.761Z,53.81
2019-05-15T01:06:38.980Z,54.12
2019-05-15T01:07:39.301Z,54.43
2019-05-15T01:08:39.373Z,54.32
2019-05-15T01:09:38.583Z,54.32
2019-05-15T01:10:38.735Z,54.12
2019-05-15T01:11:38.364Z,54.43
2019-05-15T01:12:38.227Z,54.53
2019-05-15T01:13:38.860Z,54.63
2019-05-15T01:14:38.606Z,53.81
2019-05-15T01:15:38.749Z,54.02
2019-05-15T01:16:38.450Z,54.32
2019-05-15T01:17:39.010Z,54.12
2019-05-15T01:18:38.584Z,54.32
2019-05-15T01:19:38.129Z,54.63
2019-05-15T01:20:39.108Z,54.76
2019-05-15T01:21:38.489Z,54.45
2019-05-15T01:22:39.400Z,54.76
2019-05-15T01:23:39.082Z,54.97
2019-05-15T01:24:38.907Z,54.86
2019-05-15T01:25:38.922Z,55.38
2019-05-15T01:26:38.493Z,54.76
2019-05-15T01:27:38.855Z,54.86
2019-05-15T01:28:38.554Z,54.66
2019-05-15T01:29:44.478Z,55.05
2019-05-15T01:30:39.536Z,54.63
2019-05-15T01:31:38.174Z,54.55
2019-05-15T01:32:39.521Z,55.05
2019-05-15T01:33:39.080Z,55.18
2019-05-15T01:34:38.451Z,55.05
2019-05-15T01:35:38.538Z,55.07
2019-05-15T01:36:38.368Z,54.55
2019-05-15T01:37:39.050Z,55.05
2019-05-15T01:38:38.819Z,55.07
2019-05-15T01:39:38.510Z,54.97
2019-05-15T01:40:38.616Z,54.86
2019-05-15T01:41:38.628Z,54.76
2019-05-15T01:42:38.631Z,54.97
2019-05-15T01:43:38.210Z,55.18
2019-05-15T01:44:38.972Z,55.18
2019-05-15T01:45:39.362Z,55.28
2019-05-15T01:46:39.344Z,55.38
2019-05-15T01:47:38.910Z,55.80
2019-05-15T01:48:38.769Z,55.93
2019-05-15T01:49:38.370Z,56.24
2019-05-15T01:50:38.690Z,56.34
2019-05-15T01:51:38.550Z,56.13
2019-05-15T01:52:39.019Z,55.93
2019-05-15T01:53:38.528Z,56.13
2019-05-15T01:54:38.353Z,56.54
2019-05-15T01:55:39.413Z,56.54
2019-05-15T01:56:38.746Z,56.65
2019-05-15T01:57:38.351Z,56.65
2019-05-15T01:58:38.240Z,55.93
2019-05-15T01:59:40.173Z,56.75
2019-05-15T02:00:39.369Z,56.24
2019-05-15T02:01:39.266Z,56.13
2019-05-15T02:02:39.090Z,56.65
2019-05-15T02:03:38.622Z,56.85
2019-05-15T02:04:39.292Z,56.44
2019-05-15T02:05:38.988Z,56.85
2019-05-15T02:06:39.141Z,56.77
2019-05-15T02:07:39.132Z,57.19
2019-05-15T02:08:39.277Z,57.50
2019-05-15T02:09:38.583Z,57.40
2019-05-15T02:10:39.112Z,57.50
2019-05-15T02:11:38.261Z,58.33
2019-05-15T02:12:38.715Z,58.23
2019-05-15T02:13:38.886Z,58.15
2019-05-15T02:14:39.168Z,58.33
2019-05-15T02:15:39.451Z,57.71
2019-05-15T02:16:39.324Z,57.92
2019-05-15T02:17:39.333Z,58.02
2019-05-15T02:18:39.070Z,57.73
2019-05-15T02:19:39.207Z,58.02
2019-05-15T02:20:38.923Z,59.05
2019-05-15T02:21:38.039Z,58.25
2019-05-15T02:22:42.088Z,58.15
2019-05-15T02:23:38.807Z,58.12
2019-05-15T02:24:39.047Z,58.36
2019-05-15T02:25:38.788Z,59.60
2019-05-15T02:26:38.819Z,58.64
2019-05-15T02:27:39.377Z,57.92
2019-05-15T02:28:38.377Z,58.02
2019-05-15T02:29:37.841Z,58.33
2019-05-15T02:30:40.551Z,57.40
2019-05-15T02:31:39.197Z,58.23
2019-05-15T02:32:39.595Z,57.71
2019-05-15T02:33:39.889Z,58.15
2019-05-15T02:34:39.463Z,57.71
2019-05-15T02:35:39.224Z,58.15
2019-05-15T02:36:40.088Z,58.23
2019-05-15T02:37:41.098Z,58.23
2019-05-15T02:38:40.964Z,57.92
2019-05-15T02:39:38.933Z,58.44
2019-05-15T02:40:40.327Z,57.94
2019-05-15T02:41:39.617Z,58.67
2019-05-15T02:42:40.023Z,58.46
2019-05-15T02:43:39.074Z,58.56
2019-05-15T02:44:40.096Z,58.46
2019-05-15T02:45:41.724Z,58.56
2019-05-15T02:46:39.162Z,59.08
2019-05-15T02:47:39.382Z,59.05
2019-05-15T02:48:40.600Z,58.36
2019-05-15T02:49:39.628Z,58.77
2019-05-15T02:50:39.195Z,59.29
2019-05-15T02:51:39.938Z,59.60
2019-05-15T02:52:39.081Z,59.80
2019-05-15T02:53:39.631Z,59.60
2019-05-15T02:54:39.729Z,59.39
2019-05-15T02:55:39.819Z,59.91
2019-05-15T02:56:39.203Z,60.11
2019-05-15T02:57:39.428Z,59.80
2019-05-15T02:58:39.676Z,60.22
2019-05-15T02:59:39.611Z,59.91
2019-05-15T03:00:46.942Z,60.22
2019-05-15T03:01:40.506Z,60.11
2019-05-15T03:02:40.713Z,59.91
2019-05-15T03:03:38.679Z,59.80
2019-05-15T03:04:39.945Z,59.80
2019-05-15T03:05:40.249Z,59.70
2019-05-15T03:06:38.932Z,60.32
2019-05-15T03:07:39.716Z,60.22
2019-05-15T03:08:39.555Z,59.80
2019-05-15T03:09:39.665Z,59.91
2019-05-15T03:10:39.958Z,60.01
2019-05-15T03:11:40.442Z,60.53
2019-05-15T03:12:40.179Z,60.66
2019-05-15T03:13:39.147Z,60.74
2019-05-15T03:14:39.602Z,60.22
2019-05-15T03:15:39.959Z,60.53
2019-05-15T03:16:39.428Z,60.22
2019-05-15T03:17:40.530Z,60.74
2019-05-15T03:18:39.599Z,59.91
2019-05-15T03:19:39.349Z,60.63
2019-05-15T03:20:38.862Z,60.63
2019-05-15T03:21:38.844Z,60.63
2019-05-15T03:22:39.667Z,60.63
2019-05-15T03:23:40.044Z,60.63
2019-05-15T03:24:39.626Z,60.63
2019-05-15T03:25:39.885Z,60.74
2019-05-15T03:26:39.399Z,60.53
2019-05-15T03:27:39.532Z,59.91
2019-05-15T03:28:39.182Z,60.50
2019-05-15T03:29:40.005Z,60.11
2019-05-15T03:31:07.043Z,59.80
2019-05-15T03:31:57.648Z,60.42
2019-05-15T03:32:50.713Z,60.74
2019-05-15T03:33:44.786Z,60.11
2019-05-15T03:34:46.227Z,60.32
2019-05-15T03:35:43.057Z,60.74
2019-05-15T03:36:37.633Z,60.22
2019-05-15T03:37:39.524Z,60.50
2019-05-15T03:38:39.131Z,60.32
2019-05-15T03:39:39.193Z,59.88
2019-05-15T03:40:39.504Z,60.11
2019-05-15T03:41:39.285Z,60.11
2019-05-15T03:42:39.361Z,60.53
2019-05-15T03:43:39.363Z,60.63
2019-05-15T03:44:39.098Z,60.74
2019-05-15T03:45:40.001Z,59.80
2019-05-15T03:46:39.607Z,60.32
2019-05-15T03:47:39.724Z,60.42
2019-05-15T03:48:39.787Z,59.88
2019-05-15T03:49:39.461Z,60.09
2019-05-15T03:50:39.712Z,60.01
2019-05-15T03:51:40.078Z,60.19
2019-05-15T03:52:39.489Z,59.88
2019-05-15T03:53:39.570Z,60.22
2019-05-15T03:54:39.283Z,60.42
2019-05-15T03:55:36.432Z,60.11
2019-05-15T03:56:39.261Z,60.22
2019-05-15T03:57:39.770Z,60.63
2019-05-15T03:58:39.716Z,59.91
2019-05-15T03:59:39.658Z,60.22
2019-05-15T04:00:39.246Z,60.11
2019-05-15T04:01:42.908Z,60.22
2019-05-15T04:02:39.560Z,60.11
2019-05-15T04:03:39.021Z,60.74
2019-05-15T04:04:38.903Z,60.66
2019-05-15T04:05:38.885Z,61.38
2019-05-15T04:06:39.103Z,62.08
2019-05-15T04:07:39.351Z,61.15
2019-05-15T04:08:39.121Z,62.08
2019-05-15T04:09:38.722Z,61.77
2019-05-15T04:10:39.486Z,60.46
2019-05-15T04:11:38.805Z,60.42
2019-05-15T04:12:39.839Z,60.42
2019-05-15T04:13:39.211Z,60.63
2019-05-15T04:14:39.264Z,60.87
2019-05-15T04:15:39.082Z,60.66
2019-05-15T04:16:39.150Z,61.38
2019-05-15T04:17:36.196Z,60.32
2019-05-15T04:18:39.361Z,60.42
2019-05-15T04:19:38.853Z,60.32
2019-05-15T04:20:36.155Z,60.53
2019-05-15T04:21:41.219Z,59.80
2019-05-15T04:22:40.016Z,60.01
2019-05-15T04:23:38.826Z,60.53
2019-05-15T04:24:39.217Z,60.42
2019-05-15T04:25:38.875Z,61.05
2019-05-15T04:26:39.202Z,60.01
2019-05-15T04:27:38.806Z,60.84
2019-05-15T04:28:36.072Z,59.80
2019-05-15T04:29:39.504Z,60.22
2019-05-15T04:30:43.212Z,60.42
2019-05-15T04:32:20.067Z,59.88
2019-05-15T04:33:19.849Z,59.67
2019-05-15T04:35:00.339Z,59.36
2019-05-15T04:36:00.330Z,60.27
2019-05-15T04:37:00.321Z,59.88
2019-05-15T04:38:00.314Z,59.67
2019-05-15T04:39:00.292Z,59.85
2019-05-15T04:40:00.286Z,58.92
2019-05-15T04:41:00.265Z,58.82
2019-05-15T04:42:00.267Z,59.47
2019-05-15T04:43:00.249Z,59.88
2019-05-15T04:44:00.272Z,59.34
2019-05-15T04:45:00.234Z,59.55
2019-05-15T04:46:02.988Z,60.19
2019-05-15T04:47:00.236Z,59.64
2019-05-15T04:48:00.233Z,59.44
2019-05-15T04:49:00.181Z,59.03
2019-05-15T04:50:00.173Z,59.55
2019-05-15T04:51:00.177Z,59.64
2019-05-15T04:52:03.281Z,59.13
2019-05-15T04:53:00.145Z,59.64
2019-05-15T04:54:00.138Z,59.64
2019-05-15T04:55:00.128Z,59.75
2019-05-15T04:56:00.101Z,59.52
2019-05-15T04:57:00.090Z,59.52
2019-05-15T04:58:00.076Z,58.89
2019-05-15T04:59:00.304Z,58.28
2019-05-15T05:00:00.069Z,58.48
2019-05-15T05:01:00.305Z,58.59
2019-05-15T05:02:16.247Z,58.17
2019-05-15T05:03:01.023Z,58.28
2019-05-15T05:04:00.080Z,58.48
2019-05-15T05:05:00.005Z,58.07
2019-05-15T05:05:59.988Z,58.48
2019-05-15T05:06:59.981Z,58.17
2019-05-15T05:07:59.965Z,58.76
2019-05-15T05:08:59.959Z,58.15
2019-05-15T05:09:59.940Z,58.45
2019-05-15T05:10:59.934Z,58.56
2019-05-15T05:11:59.928Z,58.25
2019-05-15T05:12:59.974Z,58.45
2019-05-15T05:13:59.898Z,58.56
2019-05-15T05:14:59.890Z,58.04
2019-05-15T05:15:59.877Z,58.45
2019-05-15T05:16:59.899Z,58.87
2019-05-15T05:17:59.849Z,58.87
2019-05-15T05:18:59.856Z,58.56
2019-05-15T05:19:59.827Z,58.56
2019-05-15T05:20:59.823Z,58.76
2019-05-15T05:21:59.807Z,58.66
2019-05-15T05:22:59.805Z,57.70
2019-05-15T05:23:59.787Z,59.05
2019-05-15T05:24:59.775Z,58.01
2019-05-15T05:25:59.768Z,58.12
2019-05-15T05:26:59.748Z,58.01
2019-05-15T05:27:59.747Z,58.22
2019-05-15T05:29:01.315Z,58.50
2019-05-15T05:29:59.719Z,57.06
2019-05-15T05:30:59.758Z,57.17
2019-05-15T05:31:59.706Z,57.06
2019-05-15T05:32:59.686Z,58.20
2019-05-15T05:33:59.674Z,56.75
2019-05-15T05:34:59.669Z,57.37
2019-05-15T05:35:59.658Z,57.06
2019-05-15T05:36:59.642Z,56.62
2019-05-15T05:37:59.638Z,56.54
2019-05-15T05:38:59.617Z,57.26
2019-05-15T05:39:59.698Z,57.45
2019-05-15T05:40:59.593Z,56.83
2019-05-15T05:41:59.651Z,56.62
2019-05-15T05:42:59.696Z,56.21
2019-05-15T05:43:59.561Z,57.24
2019-05-15T05:44:59.553Z,56.96
2019-05-15T05:45:59.535Z,56.62
2019-05-15T05:46:59.575Z,56.62
2019-05-15T05:47:59.527Z,56.54
2019-05-15T05:48:59.559Z,56.41
2019-05-15T05:49:59.499Z,57.14
2019-05-15T05:50:59.502Z,57.34
2019-05-15T05:51:59.478Z,57.65
2019-05-15T05:52:59.466Z,58.89
2019-05-15T05:53:59.473Z,56.73
2019-05-15T05:54:59.460Z,57.76
2019-05-15T05:55:59.429Z,56.21
2019-05-15T05:56:59.432Z,56.31
2019-05-15T05:57:59.426Z,56.73
2019-05-15T05:58:59.394Z,56.52
2019-05-15T05:59:59.403Z,57.11
2019-05-15T06:00:59.412Z,56.80
2019-05-15T06:01:59.415Z,56.49
2019-05-15T06:02:59.358Z,56.18
2019-05-15T06:03:59.340Z,55.87
2019-05-15T06:04:59.353Z,56.49
2019-05-15T06:05:59.349Z,56.59
2019-05-15T06:07:07.056Z,56.49
2019-05-15T06:08:00.301Z,55.98
2019-05-15T06:08:59.334Z,56.36
2019-05-15T06:09:59.328Z,56.67
2019-05-15T06:10:59.397Z,56.67
2019-05-15T06:11:59.279Z,56.57
2019-05-15T06:12:59.252Z,56.05
2019-05-15T06:13:59.235Z,56.67
2019-05-15T06:14:59.224Z,55.93
2019-05-15T06:15:59.322Z,56.75
2019-05-15T06:16:59.202Z,55.72
2019-05-15T06:17:59.195Z,56.54
2019-05-15T06:18:59.195Z,55.90
2019-05-15T06:19:59.216Z,55.69
2019-05-15T06:20:59.159Z,55.28
2019-05-15T06:22:00.998Z,54.46
2019-05-15T06:22:59.154Z,54.66
2019-05-15T06:24:04.920Z,55.49
2019-05-15T06:25:04.095Z,55.80
2019-05-15T06:25:59.390Z,55.90
2019-05-15T06:26:59.098Z,55.57
2019-05-15T06:27:59.090Z,54.64
2019-05-15T06:28:59.078Z,54.64
2019-05-15T06:29:59.058Z,54.74
2019-05-15T06:31:00.785Z,54.22
2019-05-15T06:31:59.037Z,54.22
2019-05-15T06:33:08.270Z,54.82
2019-05-15T06:34:00.012Z,54.30
2019-05-15T06:34:58.996Z,54.17
2019-05-15T06:35:59.322Z,53.35
2019-05-15T06:36:58.997Z,53.66
2019-05-15T06:37:59.239Z,53.05
2019-05-15T06:38:59.173Z,53.66
2019-05-15T06:39:58.949Z,53.23
2019-05-15T06:40:58.955Z,52.59
2019-05-15T06:41:58.978Z,52.28
2019-05-15T06:42:59.465Z,52.07
2019-05-15T06:43:59.044Z,51.53
2019-05-15T06:44:59.053Z,50.99
2019-05-15T06:45:58.897Z,50.36
2019-05-15T06:46:58.925Z,49.74
2019-05-15T06:48:01.417Z,49.72
2019-05-15T06:48:58.852Z,49.51
2019-05-15T06:49:58.824Z,49.21
2019-05-15T06:50:58.830Z,49.10
2019-05-15T06:51:58.822Z,48.80
2019-05-15T06:52:58.819Z,49.13
2019-05-15T06:53:58.794Z,48.39
2019-05-15T06:54:59.374Z,48.18
2019-05-15T06:55:58.823Z,47.97
2019-05-15T06:56:58.790Z,48.08
2019-05-15T06:57:58.747Z,48.59
2019-05-15T06:58:58.737Z,49.10
2019-05-15T06:59:58.721Z,48.90
2019-05-15T07:00:59.428Z,49.00
2019-05-15T07:01:59.507Z,49.18
2019-05-15T07:02:58.711Z,48.77
2019-05-15T07:03:59.097Z,48.36
2019-05-15T07:04:58.683Z,47.52
2019-05-15T07:05:59.917Z,48.34
2019-05-15T07:06:58.653Z,48.24
2019-05-15T07:07:58.671Z,47.63
2019-05-15T07:08:58.887Z,47.11
2019-05-15T07:09:58.614Z,47.01
2019-05-15T07:10:58.605Z,44.96
2019-05-15T07:11:59.089Z,44.65
2019-05-15T07:12:58.644Z,44.45
2019-05-15T07:13:58.578Z,44.76
2019-05-15T07:14:58.590Z,44.04
2019-05-15T07:15:58.747Z,44.24
2019-05-15T07:16:59.276Z,44.26
2019-05-15T07:17:58.528Z,44.35
2019-05-15T07:18:59.027Z,44.26
2019-05-15T07:19:59.245Z,42.52
2019-05-15T07:20:58.496Z,42.40
2019-05-15T07:21:58.488Z,42.40
2019-05-15T07:22:58.765Z,42.40
2019-05-15T07:23:58.642Z,42.40
2019-05-15T07:24:58.459Z,42.40
2019-05-15T07:25:58.860Z,43.02
2019-05-15T07:26:59.174Z,42.30
2019-05-15T07:27:58.417Z,42.61
2019-05-15T07:28:59.631Z,43.20
2019-05-15T07:29:58.504Z,42.46
2019-05-15T07:30:58.506Z,41.95
2019-05-15T07:31:58.650Z,40.60
2019-05-15T07:32:58.758Z,40.50
2019-05-15T07:33:59.745Z,39.17
2019-05-15T07:34:58.340Z,40.19
2019-05-15T07:35:58.981Z,38.86
2019-05-15T07:36:59.207Z,39.07
2019-05-15T07:37:58.755Z,38.88
2019-05-15T07:38:58.297Z,38.78
2019-05-15T07:39:59.097Z,37.54
2019-05-15T07:41:03.839Z,37.63
2019-05-15T07:41:59.269Z,37.23
2019-05-15T07:42:58.749Z,37.14
2019-05-15T07:43:58.735Z,37.43
2019-05-15T07:44:58.964Z,37.54
2019-05-15T07:45:59.037Z,37.13
2019-05-15T07:46:58.483Z,36.92
2019-05-15T07:47:58.563Z,36.82
2019-05-15T07:48:58.480Z,37.33
2019-05-15T07:49:58.953Z,36.72
2019-05-15T07:50:59.390Z,37.02
2019-05-15T07:51:59.178Z,36.92
2019-05-15T07:52:59.040Z,36.92
2019-05-15T07:53:58.482Z,37.95
2019-05-15T07:54:58.425Z,37.13
2019-05-15T07:56:01.024Z,36.80
2019-05-15T07:56:58.291Z,36.80
2019-05-15T07:57:59.127Z,36.49
2019-05-15T07:58:58.641Z,36.49
2019-05-15T07:59:58.832Z,35.47
2019-05-15T08:00:58.962Z,36.08
2019-05-15T08:01:58.388Z,36.29
2019-05-15T08:02:58.645Z,35.88
2019-05-15T08:04:09.703Z,36.70
2019-05-15T08:04:59.002Z,37.11
2019-05-15T08:06:02.103Z,36.38
2019-05-15T08:06:59.355Z,36.79
2019-05-15T08:07:58.218Z,37.40
2019-05-15T08:08:59.241Z,36.88
2019-05-15T08:09:59.081Z,36.58
2019-05-15T08:10:58.060Z,37.07
2019-05-15T08:12:00.161Z,36.87
2019-05-15T08:12:58.999Z,37.28
2019-05-15T08:13:58.302Z,36.56
2019-05-15T08:14:58.377Z,36.44
2019-05-15T08:15:58.137Z,36.55
2019-05-15T08:16:59.272Z,36.85
2019-05-15T08:18:05.630Z,37.16
2019-05-15T08:18:58.843Z,36.34
2019-05-15T08:19:58.287Z,36.46
2019-05-15T08:20:58.563Z,36.75
2019-05-15T08:21:58.155Z,36.65
2019-05-15T08:22:58.362Z,36.94
2019-05-15T08:23:59.067Z,36.94
2019-05-15T08:24:59.077Z,36.53
2019-05-15T08:25:58.028Z,36.51
2019-05-15T08:26:58.199Z,36.31
2019-05-15T08:27:58.974Z,36.21
2019-05-15T08:28:58.034Z,36.08
2019-05-15T08:29:58.158Z,36.10
2019-05-15T08:30:58.536Z,36.49
2019-05-15T08:31:59.052Z,35.58
2019-05-15T08:32:58.912Z,35.99
2019-05-15T08:34:12.308Z,35.27
2019-05-15T08:34:58.760Z,34.45
2019-05-15T08:35:58.814Z,35.08
2019-05-15T08:36:59.017Z,34.47
2019-05-15T08:37:58.097Z,35.08
2019-05-15T08:38:59.150Z,35.28
2019-05-15T08:39:59.620Z,35.08
2019-05-15T08:40:59.257Z,34.05
2019-05-15T08:41:58.478Z,35.17
2019-05-15T08:43:01.766Z,34.45
2019-05-15T08:43:57.992Z,33.84
2019-05-15T08:44:58.372Z,33.64
2019-05-15T08:45:58.641Z,32.60
2019-05-15T08:46:58.862Z,32.72
2019-05-15T08:47:58.544Z,33.13
2019-05-15T08:48:58.349Z,33.54
2019-05-15T08:49:57.923Z,32.52
2019-05-15T08:50:57.861Z,33.32
2019-05-15T08:51:58.397Z,33.32
2019-05-15T08:52:57.954Z,33.01
2019-05-15T08:53:58.021Z,32.40
2019-05-15T08:54:59.050Z,32.71
2019-05-15T08:55:58.806Z,32.49
2019-05-15T08:56:59.199Z,32.90
2019-05-15T08:58:07.901Z,32.69
2019-05-15T08:58:58.413Z,32.39
2019-05-15T08:59:58.337Z,31.16
2019-05-15T09:00:58.759Z,30.76
2019-05-15T09:01:58.269Z,31.98
2019-05-15T09:02:58.177Z,31.27
2019-05-15T09:03:58.138Z,32.59
2019-05-15T09:04:58.044Z,32.79
2019-05-15T09:05:58.993Z,32.59
2019-05-15T09:07:01.008Z,32.07
2019-05-15T09:07:58.016Z,32.39
2019-05-15T09:08:58.529Z,32.88
2019-05-15T09:09:58.050Z,31.86
2019-05-15T09:10:58.697Z,31.25
2019-05-15T09:11:58.530Z,31.66
2019-05-15T09:12:58.677Z,31.35
2019-05-15T09:13:59.484Z,30.84
2019-05-15T09:14:58.230Z,30.94
2019-05-15T09:15:58.846Z,31.96
2019-05-15T09:16:58.208Z,32.08
2019-05-15T09:18:09.211Z,32.90
2019-05-15T09:18:59.159Z,32.69
2019-05-15T09:19:58.741Z,33.00
2019-05-15T09:20:59.322Z,33.69
2019-05-15T09:21:58.551Z,32.49
2019-05-15T09:22:58.292Z,32.68
2019-05-15T09:23:58.910Z,32.78
2019-05-15T09:24:58.948Z,32.87
2019-05-15T09:25:57.905Z,32.46
2019-05-15T09:26:59.370Z,32.66
2019-05-15T09:27:57.920Z,31.85
2019-05-15T09:28:58.460Z,32.75
2019-05-15T09:29:59.161Z,32.54
2019-05-15T09:30:59.131Z,32.32
2019-05-15T09:31:58.856Z,32.53
2019-05-15T09:32:58.818Z,31.82
2019-05-15T09:33:58.550Z,32.53
2019-05-15T09:34:59.179Z,32.12
2019-05-15T09:35:58.306Z,32.63
2019-05-15T09:36:59.785Z,32.63
2019-05-15T09:37:58.348Z,32.82
2019-05-15T09:38:58.507Z,32.31
2019-05-15T09:39:58.426Z,32.41
2019-05-15T09:40:58.583Z,32.31
2019-05-15T09:41:57.933Z,32.71
2019-05-15T09:42:57.848Z,32.20
2019-05-15T09:43:57.910Z,31.06
2019-05-15T09:44:58.187Z,31.28
2019-05-15T09:45:58.303Z,31.18
2019-05-15T09:46:58.427Z,30.89
2019-05-15T09:47:59.016Z,32.31
2019-05-15T09:48:59.084Z,33.02
2019-05-15T09:49:58.780Z,32.62
2019-05-15T09:50:58.694Z,32.10
2019-05-15T09:51:58.617Z,32.10
2019-05-15T09:52:58.788Z,32.21
2019-05-15T09:53:59.388Z,31.90
2019-05-15T09:54:59.147Z,32.82
2019-05-15T09:55:56.761Z,32.62
2019-05-15T09:56:58.556Z,32.51
2019-05-15T09:57:59.035Z,32.80
2019-05-15T09:58:58.203Z,32.41
2019-05-15T09:59:58.721Z,32.51
2019-05-15T10:00:56.698Z,32.92
2019-05-15T10:01:58.690Z,33.02
2019-05-15T10:02:56.681Z,32.10
2019-05-15T10:03:56.679Z,32.92
2019-05-15T10:05:05.903Z,32.62
2019-05-15T10:05:57.647Z,33.12
2019-05-15T10:06:56.631Z,32.41
2019-05-15T10:07:56.639Z,32.62
2019-05-15T10:08:56.610Z,33.73
2019-05-15T10:09:56.591Z,32.41
2019-05-15T10:10:56.588Z,32.92
2019-05-15T10:11:56.574Z,33.02
2019-05-15T10:12:59.361Z,32.71
2019-05-15T10:13:58.536Z,32.92
2019-05-15T10:14:59.032Z,33.83
2019-05-15T10:15:58.596Z,33.53
2019-05-15T10:16:58.360Z,33.53
2019-05-15T10:17:59.529Z,33.92
2019-05-15T10:18:58.187Z,33.53
2019-05-15T10:19:58.257Z,34.04
2019-05-15T10:20:58.109Z,33.94
2019-05-15T10:21:59.257Z,33.94
2019-05-15T10:22:58.876Z,33.73
2019-05-15T10:23:58.997Z,34.34
2019-05-15T10:24:58.597Z,33.53
2019-05-15T10:25:58.509Z,33.33
2019-05-15T10:26:58.029Z,33.94
2019-05-15T10:27:57.953Z,34.55
2019-05-15T10:28:58.449Z,33.73
2019-05-15T10:29:58.703Z,33.65
2019-05-15T10:30:56.364Z,34.77
2019-05-15T10:31:56.348Z,33.75
2019-05-15T10:32:56.343Z,33.75
2019-05-15T10:33:58.323Z,33.87
2019-05-15T10:34:58.478Z,35.60
2019-05-15T10:35:58.818Z,34.56
2019-05-15T10:36:58.758Z,34.97
2019-05-15T10:37:59.072Z,34.78
2019-05-15T10:38:59.041Z,34.88
2019-05-15T10:39:58.433Z,34.97
2019-05-15T10:41:08.100Z,34.77
2019-05-15T10:41:57.269Z,34.36
2019-05-15T10:42:56.226Z,35.58
2019-05-15T10:43:57.042Z,34.87
2019-05-15T10:44:58.736Z,35.68
2019-05-15T10:45:58.564Z,35.27
2019-05-15T10:46:58.345Z,35.99
2019-05-15T10:47:58.546Z,36.29
2019-05-15T10:48:58.500Z,35.58
2019-05-15T10:49:56.151Z,36.51
2019-05-15T10:51:01.363Z,36.51
2019-05-15T10:51:57.146Z,36.41
2019-05-15T10:52:56.120Z,35.80
2019-05-15T10:53:56.149Z,36.31
2019-05-15T10:54:58.079Z,35.80
2019-05-15T10:55:56.082Z,36.31
2019-05-15T10:57:00.480Z,36.51
2019-05-15T10:57:56.082Z,36.82
2019-05-15T10:58:56.070Z,35.90
2019-05-15T10:59:58.334Z,36.61
2019-05-15T11:01:00.974Z,36.71
2019-05-15T11:01:59.091Z,36.29
2019-05-15T11:02:57.952Z,35.78
2019-05-15T11:03:58.664Z,35.27
2019-05-15T11:04:57.860Z,34.77
2019-05-15T11:05:57.963Z,35.99
2019-05-15T11:06:58.003Z,35.39
2019-05-15T11:07:55.943Z,35.80
2019-05-15T11:08:58.414Z,36.61
2019-05-15T11:09:58.051Z,36.00
2019-05-15T11:10:58.381Z,35.88
2019-05-15T11:11:58.179Z,36.29
2019-05-15T11:12:58.026Z,36.29
2019-05-15T11:14:00.252Z,36.29
2019-05-15T11:14:55.877Z,35.78
2019-05-15T11:15:55.860Z,36.00
2019-05-15T11:16:55.842Z,36.21
2019-05-15T11:17:58.300Z,36.61
2019-05-15T11:18:55.817Z,36.21
2019-05-15T11:19:55.814Z,36.51
2019-05-15T11:20:55.812Z,35.90
2019-05-15T11:21:58.247Z,35.90
2019-05-15T11:22:55.782Z,35.49
2019-05-15T11:23:58.818Z,35.88
2019-05-15T11:24:55.756Z,34.36
2019-05-15T11:25:57.977Z,35.49
2019-05-15T11:26:56.401Z,36.19
2019-05-15T11:27:55.725Z,36.31
2019-05-15T11:28:58.521Z,36.51
2019-05-15T11:29:55.693Z,35.99
2019-05-15T11:30:55.686Z,36.39
2019-05-15T11:31:57.924Z,36.29
2019-05-15T11:32:55.663Z,35.66
2019-05-15T11:33:55.654Z,35.78
2019-05-15T11:34:58.107Z,35.88
2019-05-15T11:36:02.043Z,35.58
2019-05-15T11:36:59.258Z,35.99
2019-05-15T11:37:56.980Z,36.58
2019-05-15T11:38:55.621Z,35.86
2019-05-15T11:39:55.583Z,35.99
2019-05-15T11:40:55.575Z,35.77
2019-05-15T11:41:55.573Z,36.17
2019-05-15T11:42:55.566Z,36.47
2019-05-15T11:43:55.536Z,36.27
2019-05-15T11:44:55.541Z,34.75
2019-05-15T11:45:55.510Z,35.07
2019-05-15T11:46:55.531Z,35.99
2019-05-15T11:47:55.491Z,36.39
2019-05-15T11:48:55.501Z,36.39
2019-05-15T11:49:55.476Z,35.99
2019-05-15T11:50:55.471Z,35.99
2019-05-15T11:52:00.403Z,35.99
2019-05-15T11:52:58.523Z,36.07
2019-05-15T11:53:55.424Z,36.58
2019-05-15T11:54:55.412Z,35.77
2019-05-15T11:55:55.417Z,36.17
2019-05-15T11:56:55.396Z,35.97
2019-05-15T11:57:55.808Z,36.58
2019-05-15T11:58:55.370Z,36.07
2019-05-15T11:59:58.773Z,36.58
2019-05-15T12:00:55.344Z,35.77
2019-05-15T12:01:55.332Z,35.77
2019-05-15T12:02:55.327Z,36.16
2019-05-15T12:03:55.339Z,36.16
2019-05-15T12:04:55.303Z,35.85
2019-05-15T12:05:55.300Z,36.05
2019-05-15T12:06:59.682Z,36.25
2019-05-15T12:07:57.917Z,36.27
2019-05-15T12:08:55.252Z,35.95
2019-05-15T12:09:57.937Z,35.75
2019-05-15T12:10:55.257Z,34.34
2019-05-15T12:11:55.222Z,34.95
2019-05-15T12:12:55.211Z,34.75
2019-05-15T12:13:55.199Z,34.95
2019-05-15T12:14:55.182Z,35.86
2019-05-15T12:15:55.169Z,35.97
2019-05-15T12:17:10.085Z,35.86
2019-05-15T12:17:56.161Z,36.68
2019-05-15T12:18:55.149Z,35.56
2019-05-15T12:19:58.376Z,36.47
2019-05-15T12:20:58.809Z,36.27
2019-05-15T12:21:55.107Z,35.95
2019-05-15T12:22:55.120Z,35.97
2019-05-15T12:23:55.087Z,36.36
2019-05-15T12:24:55.078Z,35.85
2019-05-15T12:25:55.092Z,35.04
2019-05-15T12:26:55.048Z,34.74
2019-05-15T12:27:55.059Z,35.14
2019-05-15T12:28:55.029Z,34.74
2019-05-15T12:29:55.029Z,34.52
2019-05-15T12:30:55.034Z,35.83
2019-05-15T12:31:54.996Z,34.72
2019-05-15T12:32:54.987Z,34.70
2019-05-15T12:33:54.983Z,34.19
2019-05-15T12:34:54.968Z,34.09
2019-05-15T12:35:54.958Z,32.77
2019-05-15T12:36:58.060Z,33.97
2019-05-15T12:37:54.928Z,33.47
2019-05-15T12:38:54.943Z,34.08
2019-05-15T12:59:55.690Z,34.33
2019-05-15T13:00:54.661Z,33.91
2019-05-15T13:01:54.658Z,35.83
2019-05-15T13:02:54.663Z,34.74
2019-05-15T13:03:54.649Z,36.16
2019-05-15T13:04:54.635Z,35.95
2019-05-15T13:05:54.673Z,36.27
2019-05-15T13:07:11.631Z,35.97
2019-05-15T13:07:55.581Z,36.58
2019-05-15T13:08:54.613Z,36.68
2019-05-15T13:09:54.565Z,36.38
2019-05-15T13:10:54.548Z,37.29
2019-05-15T13:11:54.560Z,36.17
2019-05-15T13:13:01.249Z,36.68
2019-05-15T13:13:55.553Z,37.39